createdAt,value
2023-02-06T00:05:13.152Z,104360.44
2023-02-06T00:15:35.217Z,104350.94
2023-02-06T00:25:56.805Z,104341.69
2023-02-06T00:36:18.269Z,104350.75
2023-02-06T00:46:39.788Z,104333.41
2023-02-06T00:57:01.276Z,104354.03
2023-02-06T01:07:22.646Z,104340.72
2023-02-06T01:17:43.989Z,104336.38
2023-02-06T01:28:05.400Z,104369.00
2023-02-06T01:38:26.777Z,104367.66
2023-02-06T01:48:49.505Z,104352.25
2023-02-06T01:59:11.609Z,104328.78
2023-02-06T02:09:33.654Z,104333.34
2023-02-06T02:20:13.930Z,104335.75
2023-02-06T02:30:54.256Z,104361.53
2023-02-06T02:41:27.774Z,104380.41
2023-02-06T02:51:50.284Z,104355.81
2023-02-06T03:02:14.550Z,104333.53
2023-02-06T03:12:44.661Z,104348.75
2023-02-06T03:23:06.803Z,104357.66
2023-02-06T03:33:31.781Z,104349.00
2023-02-06T03:43:53.937Z,104351.66
2023-02-06T03:54:16.954Z,104375.19
2023-02-06T04:04:39.771Z,104381.63
2023-02-06T04:15:01.124Z,104370.13
2023-02-06T04:25:22.494Z,104352.00
2023-02-06T04:35:43.967Z,104343.53
2023-02-06T04:46:05.354Z,104332.84
2023-02-06T04:56:26.782Z,104318.53
2023-02-06T05:06:48.136Z,104328.88
2023-02-06T05:17:09.515Z,104315.38
2023-02-06T05:27:30.864Z,104305.31
2023-02-06T05:37:52.280Z,104307.25
2023-02-06T05:48:13.646Z,104289.91
2023-02-06T05:58:35.034Z,104279.44
2023-02-06T06:08:56.374Z,104284.19
2023-02-06T06:19:17.817Z,104271.50
2023-02-06T06:29:39.314Z,104290.88
2023-02-06T06:40:00.682Z,104307.19
2023-02-06T06:50:22.136Z,104303.41
2023-02-06T07:00:43.580Z,104297.38
2023-02-06T07:11:05.130Z,104286.59
2023-02-06T07:21:26.479Z,104289.19
2023-02-06T07:31:47.859Z,104296.56
2023-02-06T07:42:09.313Z,104304.81
2023-02-06T07:52:30.933Z,104310.38
2023-02-06T08:02:52.277Z,104309.41
2023-02-06T08:13:13.662Z,104322.16
2023-02-06T08:23:35.389Z,104332.31
2023-02-06T08:33:57.259Z,104338.03
2023-02-06T08:44:18.679Z,104340.81
2023-02-06T08:54:40.033Z,104328.72
2023-02-06T09:05:01.416Z,104330.72
2023-02-06T09:15:22.760Z,104336.91
2023-02-06T09:25:45.103Z,104347.94
2023-02-06T09:36:08.714Z,104338.75
2023-02-06T09:46:33.368Z,104320.38
2023-02-06T09:57:06.135Z,104325.38
2023-02-06T10:07:57.265Z,104326.38
2023-02-06T10:18:35.950Z,104311.34
2023-02-06T10:29:00.419Z,104309.72
2023-02-06T10:39:34.002Z,104313.03
2023-02-06T10:50:02.963Z,104291.91
2023-02-06T11:00:28.022Z,104291.06
2023-02-06T11:10:50.093Z,104288.53
2023-02-06T11:21:14.063Z,104291.31
2023-02-06T11:31:44.911Z,104287.81
2023-02-06T11:42:24.705Z,104278.69
2023-02-06T11:52:47.252Z,104277.00
2023-02-06T12:03:30.919Z,104293.69
2023-02-06T12:13:57.348Z,104268.22
2023-02-06T12:24:21.826Z,104271.28
2023-02-06T12:34:56.372Z,104271.03
2023-02-06T12:45:43.096Z,104272.25
2023-02-06T12:56:13.782Z,104273.19
2023-02-06T13:06:50.403Z,104245.06
2023-02-06T13:17:22.006Z,104239.53
2023-02-06T13:27:43.520Z,104245.63
2023-02-06T13:38:23.452Z,104243.28
2023-02-06T13:49:12.170Z,104233.75
2023-02-06T13:59:50.795Z,104245.63
2023-02-06T14:10:46.758Z,104249.03
2023-02-06T14:21:29.484Z,104243.84
2023-02-06T14:32:09.753Z,104254.16
2023-02-06T14:42:57.485Z,104248.41
2023-02-06T14:53:25.124Z,104237.13
2023-02-06T15:03:48.194Z,104237.50
2023-02-06T15:14:20.126Z,104221.75
2023-02-06T15:24:44.464Z,104229.38
2023-02-06T15:35:41.662Z,104221.81
2023-02-06T15:46:04.792Z,104230.38
2023-02-06T15:56:28.600Z,104225.50
2023-02-06T16:07:01.472Z,104218.22
2023-02-06T16:17:30.206Z,104232.19
2023-02-06T16:27:52.438Z,104227.47
2023-02-06T16:38:13.834Z,104243.78
2023-02-06T16:48:35.210Z,104233.34
2023-02-06T16:58:56.584Z,104248.41
2023-02-06T17:09:18.852Z,104249.75
2023-02-06T17:19:40.725Z,104254.81
2023-02-06T17:30:04.036Z,104261.84
2023-02-06T17:40:28.217Z,104258.56
2023-02-06T17:50:49.603Z,104268.34
2023-02-06T18:01:15.466Z,104275.81
2023-02-06T18:11:37.110Z,104288.00
2023-02-06T18:21:58.493Z,104288.41
2023-02-06T18:32:19.957Z,104293.09
2023-02-06T18:42:50.774Z,104290.91
2023-02-06T18:53:12.167Z,104299.66
2023-02-06T19:03:33.528Z,104292.91
2023-02-06T19:13:55.015Z,104291.41
2023-02-06T19:24:18.660Z,104281.16
2023-02-06T19:34:40.873Z,104292.28
2023-02-06T19:45:04.164Z,104302.53
2023-02-06T19:55:25.574Z,104300.94
2023-02-06T20:05:47.110Z,104312.59
2023-02-06T20:16:23.430Z,104318.03
2023-02-06T20:26:45.398Z,104325.00
2023-02-06T20:37:06.791Z,104336.34
2023-02-06T20:47:28.380Z,104316.94
2023-02-06T20:57:49.766Z,104327.19
2023-02-06T21:08:12.067Z,104319.97
2023-02-06T21:18:33.738Z,104327.38
2023-02-06T21:28:55.169Z,104334.97
2023-02-06T21:39:21.562Z,104337.09
2023-02-06T21:49:42.944Z,104339.38
2023-02-06T22:00:04.681Z,104351.03
2023-02-06T22:10:26.093Z,104352.44
2023-02-06T22:20:47.442Z,104364.06
2023-02-06T22:31:10.394Z,104373.66
2023-02-06T22:41:32.221Z,104360.31
2023-02-06T22:51:53.688Z,104356.78
2023-02-06T23:02:15.138Z,104366.63
2023-02-06T23:12:36.543Z,104378.56
2023-02-06T23:22:57.914Z,104374.38
2023-02-06T23:33:19.664Z,104387.38
2023-02-06T23:43:41.201Z,104374.50
2023-02-06T23:54:02.742Z,104378.56
